sensor_id;sensor_type;location;lat;lon;timestamp;temperature;humidity
41262;DHT22;29629;52.532;13.352;2023-06-26T00:00:03;22.20;99.90
41262;DHT22;29629;52.532;13.352;2023-06-26T00:02:31;22.10;99.90
41262;DHT22;29629;52.532;13.352;2023-06-26T00:04:59;22.20;99.90
41262;DHT22;29629;52.532;13.352;2023-06-26T00:07:28;22.10;99.90
41262;DHT22;29629;52.532;13.352;2023-06-26T00:09:57;22.00;99.90
41262;DHT22;29629;52.532;13.352;2023-06-26T00:12:24;22.00;99.90
41262;DHT22;29629;52.532;13.352;2023-06-26T00:14:51;22.00;99.90
41262;DHT22;29629;52.532;13.352;2023-06-26T00:17:18;22.00;99.90
41262;DHT22;29629;52.532;13.352;2023-06-26T00:19:45;21.90;99.90
41262;DHT22;29629;52.532;13.352;2023-06-26T00:22:12;21.90;99.90
41262;DHT22;29629;52.532;13.352;2023-06-26T00:24:39;21.90;99.90
41262;DHT22;29629;52.532;13.352;2023-06-26T00:27:08;21.90;99.90
41262;DHT22;29629;52.532;13.352;2023-06-26T00:29:35;21.80;99.90
41262;DHT22;29629;52.532;13.352;2023-06-26T00:32:02;21.80;99.90
41262;DHT22;29629;52.532;13.352;2023-06-26T00:34:29;21.70;99.90
41262;DHT22;29629;52.532;13.352;2023-06-26T00:36:56;21.70;99.90
41262;DHT22;29629;52.532;13.352;2023-06-26T00:39:22;21.70;99.90
41262;DHT22;29629;52.532;13.352;2023-06-26T00:41:51;21.70;99.90
41262;DHT22;29629;52.532;13.352;2023-06-26T00:44:20;21.70;99.90
41262;DHT22;29629;52.532;13.352;2023-06-26T00:46:47;21.70;99.90
41262;DHT22;29629;52.532;13.352;2023-06-26T00:49:15;21.70;99.90
41262;DHT22;29629;52.532;13.352;2023-06-26T00:51:42;21.70;99.90
41262;DHT22;29629;52.532;13.352;2023-06-26T00:54:10;21.80;99.90
41262;DHT22;29629;52.532;13.352;2023-06-26T00:56:37;21.80;99.90
41262;DHT22;29629;52.532;13.352;2023-06-26T00:59:04;21.80;99.90
41262;DHT22;29629;52.532;13.352;2023-06-26T01:01:32;21.80;99.90
41262;DHT22;29629;52.532;13.352;2023-06-26T01:03:59;21.80;99.90
41262;DHT22;29629;52.532;13.352;2023-06-26T01:06:28;21.80;99.90
41262;DHT22;29629;52.532;13.352;2023-06-26T01:08:57;21.70;99.90
41262;DHT22;29629;52.532;13.352;2023-06-26T01:11:24;21.70;99.90
41262;DHT22;29629;52.532;13.352;2023-06-26T01:13:51;21.70;99.90
41262;DHT22;29629;52.532;13.352;2023-06-26T01:16:20;21.80;99.90
41262;DHT22;29629;52.532;13.352;2023-06-26T01:18:49;21.70;99.90
41262;DHT22;29629;52.532;13.352;2023-06-26T01:21:17;21.80;99.90
41262;DHT22;29629;52.532;13.352;2023-06-26T01:23:54;21.70;99.90
41262;DHT22;29629;52.532;13.352;2023-06-26T01:26:27;21.70;99.90
41262;DHT22;29629;52.532;13.352;2023-06-26T01:28:57;21.70;99.90
41262;DHT22;29629;52.532;13.352;2023-06-26T01:31:26;21.70;99.90
41262;DHT22;29629;52.532;13.352;2023-06-26T01:33:54;21.70;99.90
41262;DHT22;29629;52.532;13.352;2023-06-26T01:36:22;21.70;99.90
41262;DHT22;29629;52.532;13.352;2023-06-26T01:38:49;21.70;99.90
41262;DHT22;29629;52.532;13.352;2023-06-26T01:41:16;21.70;99.90
41262;DHT22;29629;52.532;13.352;2023-06-26T01:44:02;21.70;99.90
41262;DHT22;29629;52.532;13.352;2023-06-26T01:46:38;21.70;99.90
41262;DHT22;29629;52.532;13.352;2023-06-26T01:49:12;21.60;99.90
41262;DHT22;29629;52.532;13.352;2023-06-26T01:51:42;21.70;99.90
41262;DHT22;29629;52.532;13.352;2023-06-26T01:54:17;21.60;99.90
41262;DHT22;29629;52.532;13.352;2023-06-26T01:56:45;21.60;99.90
41262;DHT22;29629;52.532;13.352;2023-06-26T01:59:17;21.60;99.90
41262;DHT22;29629;52.532;13.352;2023-06-26T02:01:45;21.60;99.90
41262;DHT22;29629;52.532;13.352;2023-06-26T02:04:12;21.60;99.90
41262;DHT22;29629;52.532;13.352;2023-06-26T02:06:39;21.60;99.90
41262;DHT22;29629;52.532;13.352;2023-06-26T02:09:06;21.60;99.90
41262;DHT22;29629;52.532;13.352;2023-06-26T02:11:33;21.60;99.90
41262;DHT22;29629;52.532;13.352;2023-06-26T02:14:00;21.60;99.90
41262;DHT22;29629;52.532;13.352;2023-06-26T02:16:29;21.60;99.90
41262;DHT22;29629;52.532;13.352;2023-06-26T02:18:56;21.60;99.90
41262;DHT22;29629;52.532;13.352;2023-06-26T02:21:24;21.60;99.90
41262;DHT22;29629;52.532;13.352;2023-06-26T02:23:51;21.60;99.90
41262;DHT22;29629;52.532;13.352;2023-06-26T02:26:18;21.60;99.90
41262;DHT22;29629;52.532;13.352;2023-06-26T02:28:46;21.60;99.90
41262;DHT22;29629;52.532;13.352;2023-06-26T02:31:12;21.60;99.90
41262;DHT22;29629;52.532;13.352;2023-06-26T02:33:41;21.60;99.90
41262;DHT22;29629;52.532;13.352;2023-06-26T02:36:08;21.60;99.90
41262;DHT22;29629;52.532;13.352;2023-06-26T02:38:35;21.60;99.90
41262;DHT22;29629;52.532;13.352;2023-06-26T02:41:02;21.50;99.90
41262;DHT22;29629;52.532;13.352;2023-06-26T02:43:29;21.50;99.90
41262;DHT22;29629;52.532;13.352;2023-06-26T02:45:55;21.50;99.90
41262;DHT22;29629;52.532;13.352;2023-06-26T02:48:22;21.40;99.90
41262;DHT22;29629;52.532;13.352;2023-06-26T02:50:51;21.40;99.90
41262;DHT22;29629;52.532;13.352;2023-06-26T02:53:18;21.40;99.90
41262;DHT22;29629;52.532;13.352;2023-06-26T02:55:45;21.30;99.90
41262;DHT22;29629;52.532;13.352;2023-06-26T02:58:13;21.20;99.90
41262;DHT22;29629;52.532;13.352;2023-06-26T03:00:40;21.20;99.90
41262;DHT22;29629;52.532;13.352;2023-06-26T03:03:07;21.20;99.90
41262;DHT22;29629;52.532;13.352;2023-06-26T03:05:33;21.10;99.90
41262;DHT22;29629;52.532;13.352;2023-06-26T03:08:02;21.10;99.90
41262;DHT22;29629;52.532;13.352;2023-06-26T03:10:29;21.10;99.90
41262;DHT22;29629;52.532;13.352;2023-06-26T03:12:56;21.10;99.90
41262;DHT22;29629;52.532;13.352;2023-06-26T03:15:23;21.10;99.90
41262;DHT22;29629;52.532;13.352;2023-06-26T03:17:49;21.10;99.90
41262;DHT22;29629;52.532;13.352;2023-06-26T03:20:19;21.10;99.90
41262;DHT22;29629;52.532;13.352;2023-06-26T03:22:46;21.00;99.90
41262;DHT22;29629;52.532;13.352;2023-06-26T03:25:15;21.00;99.90
41262;DHT22;29629;52.532;13.352;2023-06-26T03:27:42;21.00;99.90
41262;DHT22;29629;52.532;13.352;2023-06-26T03:30:10;21.00;99.90
41262;DHT22;29629;52.532;13.352;2023-06-26T03:32:37;21.00;99.90
41262;DHT22;29629;52.532;13.352;2023-06-26T03:35:05;21.00;99.90
41262;DHT22;29629;52.532;13.352;2023-06-26T03:37:32;21.00;99.90
41262;DHT22;29629;52.532;13.352;2023-06-26T03:39:59;21.00;99.90
41262;DHT22;29629;52.532;13.352;2023-06-26T03:42:27;21.10;99.90
41262;DHT22;29629;52.532;13.352;2023-06-26T03:44:54;21.10;99.90
41262;DHT22;29629;52.532;13.352;2023-06-26T03:47:21;21.10;99.90
41262;DHT22;29629;52.532;13.352;2023-06-26T03:49:48;21.10;99.90
41262;DHT22;29629;52.532;13.352;2023-06-26T03:52:15;21.10;99.90
41262;DHT22;29629;52.532;13.352;2023-06-26T03:54:42;21.10;99.90
41262;DHT22;29629;52.532;13.352;2023-06-26T03:57:09;21.10;99.90
41262;DHT22;29629;52.532;13.352;2023-06-26T03:59:37;21.10;99.90
41262;DHT22;29629;52.532;13.352;2023-06-26T04:02:04;21.20;99.90
41262;DHT22;29629;52.532;13.352;2023-06-26T04:04:31;21.30;99.90
41262;DHT22;29629;52.532;13.352;2023-06-26T04:06:58;21.30;99.90
41262;DHT22;29629;52.532;13.352;2023-06-26T04:09:25;21.40;99.90
41262;DHT22;29629;52.532;13.352;2023-06-26T04:11:53;21.50;99.90
41262;DHT22;29629;52.532;13.352;2023-06-26T04:14:20;21.50;99.90
41262;DHT22;29629;52.532;13.352;2023-06-26T04:16:48;21.60;99.90
41262;DHT22;29629;52.532;13.352;2023-06-26T04:19:15;21.50;99.90
41262;DHT22;29629;52.532;13.352;2023-06-26T04:21:42;21.60;99.90
41262;DHT22;29629;52.532;13.352;2023-06-26T04:24:09;21.60;99.90
41262;DHT22;29629;52.532;13.352;2023-06-26T04:26:36;21.60;99.90
41262;DHT22;29629;52.532;13.352;2023-06-26T04:29:06;21.60;99.90
41262;DHT22;29629;52.532;13.352;2023-06-26T04:31:33;21.60;99.90
41262;DHT22;29629;52.532;13.352;2023-06-26T04:34:02;21.60;99.90
41262;DHT22;29629;52.532;13.352;2023-06-26T04:36:29;21.60;99.90
41262;DHT22;29629;52.532;13.352;2023-06-26T04:38:57;21.60;99.90
41262;DHT22;29629;52.532;13.352;2023-06-26T04:41:24;21.60;99.90
41262;DHT22;29629;52.532;13.352;2023-06-26T04:43:51;21.60;99.90
41262;DHT22;29629;52.532;13.352;2023-06-26T04:46:18;21.50;99.90
41262;DHT22;29629;52.532;13.352;2023-06-26T04:48:45;21.60;99.90
41262;DHT22;29629;52.532;13.352;2023-06-26T04:51:13;21.60;99.90
41262;DHT22;29629;52.532;13.352;2023-06-26T04:53:40;21.60;99.90
41262;DHT22;29629;52.532;13.352;2023-06-26T04:56:07;21.60;99.90
41262;DHT22;29629;52.532;13.352;2023-06-26T04:58:34;21.60;99.90
41262;DHT22;29629;52.532;13.352;2023-06-26T05:01:01;21.60;99.90
41262;DHT22;29629;52.532;13.352;2023-06-26T05:03:28;21.70;99.90
41262;DHT22;29629;52.532;13.352;2023-06-26T05:05:55;21.80;99.90
41262;DHT22;29629;52.532;13.352;2023-06-26T05:08:24;22.00;99.90
41262;DHT22;29629;52.532;13.352;2023-06-26T05:10:52;22.10;99.90
41262;DHT22;29629;52.532;13.352;2023-06-26T05:13:23;22.30;99.90
41262;DHT22;29629;52.532;13.352;2023-06-26T05:15:51;22.30;99.90
41262;DHT22;29629;52.532;13.352;2023-06-26T05:18:18;22.40;99.90
41262;DHT22;29629;52.532;13.352;2023-06-26T05:20:45;22.50;99.90
41262;DHT22;29629;52.532;13.352;2023-06-26T05:23:13;22.50;99.90
41262;DHT22;29629;52.532;13.352;2023-06-26T05:25:41;22.50;99.90
41262;DHT22;29629;52.532;13.352;2023-06-26T05:28:09;22.60;99.90
41262;DHT22;29629;52.532;13.352;2023-06-26T05:30:38;22.60;99.90
41262;DHT22;29629;52.532;13.352;2023-06-26T05:33:05;22.50;99.90
41262;DHT22;29629;52.532;13.352;2023-06-26T05:35:34;22.50;99.90
41262;DHT22;29629;52.532;13.352;2023-06-26T05:38:02;22.40;99.90
41262;DHT22;29629;52.532;13.352;2023-06-26T05:40:29;22.40;99.90
41262;DHT22;29629;52.532;13.352;2023-06-26T05:42:58;22.40;99.90
41262;DHT22;29629;52.532;13.352;2023-06-26T05:45:25;22.30;99.90
41262;DHT22;29629;52.532;13.352;2023-06-26T05:47:52;22.40;99.90
41262;DHT22;29629;52.532;13.352;2023-06-26T05:50:19;22.50;99.90
41262;DHT22;29629;52.532;13.352;2023-06-26T05:52:47;22.70;99.90
41262;DHT22;29629;52.532;13.352;2023-06-26T05:55:14;22.80;99.90
41262;DHT22;29629;52.532;13.352;2023-06-26T05:57:42;22.80;99.90
41262;DHT22;29629;52.532;13.352;2023-06-26T06:00:12;22.80;99.90
41262;DHT22;29629;52.532;13.352;2023-06-26T06:02:40;23.00;99.90
41262;DHT22;29629;52.532;13.352;2023-06-26T06:05:08;23.00;99.90
41262;DHT22;29629;52.532;13.352;2023-06-26T06:07:35;23.20;99.90
41262;DHT22;29629;52.532;13.352;2023-06-26T06:10:03;23.20;99.90
41262;DHT22;29629;52.532;13.352;2023-06-26T06:12:30;23.20;99.90
41262;DHT22;29629;52.532;13.352;2023-06-26T06:14:57;23.50;99.90
41262;DHT22;29629;52.532;13.352;2023-06-26T06:17:25;23.50;99.90
41262;DHT22;29629;52.532;13.352;2023-06-26T06:19:52;23.60;99.90
41262;DHT22;29629;52.532;13.352;2023-06-26T06:22:19;23.80;99.90
41262;DHT22;29629;52.532;13.352;2023-06-26T06:24:48;23.80;99.90
41262;DHT22;29629;52.532;13.352;2023-06-26T06:27:16;23.90;99.90
41262;DHT22;29629;52.532;13.352;2023-06-26T06:29:43;24.20;99.90
41262;DHT22;29629;52.532;13.352;2023-06-26T06:32:10;24.30;99.90
41262;DHT22;29629;52.532;13.352;2023-06-26T06:34:38;24.40;99.90
41262;DHT22;29629;52.532;13.352;2023-06-26T06:37:05;24.50;99.90
41262;DHT22;29629;52.532;13.352;2023-06-26T06:39:32;24.60;99.90
41262;DHT22;29629;52.532;13.352;2023-06-26T06:41:58;24.50;99.90
41262;DHT22;29629;52.532;13.352;2023-06-26T06:44:25;24.60;99.90
41262;DHT22;29629;52.532;13.352;2023-06-26T06:46:52;24.90;99.90
41262;DHT22;29629;52.532;13.352;2023-06-26T06:49:19;25.10;99.90
41262;DHT22;29629;52.532;13.352;2023-06-26T06:51:47;25.20;99.90
41262;DHT22;29629;52.532;13.352;2023-06-26T06:54:15;25.20;99.90
41262;DHT22;29629;52.532;13.352;2023-06-26T06:56:43;25.10;99.90
41262;DHT22;29629;52.532;13.352;2023-06-26T06:59:10;25.20;99.90
41262;DHT22;29629;52.532;13.352;2023-06-26T07:01:37;25.30;99.90
41262;DHT22;29629;52.532;13.352;2023-06-26T07:04:04;25.30;99.90
41262;DHT22;29629;52.532;13.352;2023-06-26T07:06:31;25.40;99.90
41262;DHT22;29629;52.532;13.352;2023-06-26T07:08:59;25.40;99.90
41262;DHT22;29629;52.532;13.352;2023-06-26T07:11:26;25.60;99.90
41262;DHT22;29629;52.532;13.352;2023-06-26T07:13:53;25.60;99.90
41262;DHT22;29629;52.532;13.352;2023-06-26T07:16:20;25.90;99.90
41262;DHT22;29629;52.532;13.352;2023-06-26T07:18:47;25.90;99.90
41262;DHT22;29629;52.532;13.352;2023-06-26T07:21:15;26.00;99.90
41262;DHT22;29629;52.532;13.352;2023-06-26T07:23:42;26.00;99.90
41262;DHT22;29629;52.532;13.352;2023-06-26T07:26:10;26.10;99.90
41262;DHT22;29629;52.532;13.352;2023-06-26T07:28:37;26.20;99.90
41262;DHT22;29629;52.532;13.352;2023-06-26T07:31:04;26.40;99.90
41262;DHT22;29629;52.532;13.352;2023-06-26T07:33:31;26.40;99.90
41262;DHT22;29629;52.532;13.352;2023-06-26T07:35:58;26.70;99.90
41262;DHT22;29629;52.532;13.352;2023-06-26T07:38:24;26.60;99.90
41262;DHT22;29629;52.532;13.352;2023-06-26T07:40:51;26.50;99.90
41262;DHT22;29629;52.532;13.352;2023-06-26T07:43:20;26.70;99.90
41262;DHT22;29629;52.532;13.352;2023-06-26T07:45:48;26.90;99.90
41262;DHT22;29629;52.532;13.352;2023-06-26T07:48:17;27.00;99.90
41262;DHT22;29629;52.532;13.352;2023-06-26T07:50:44;27.00;99.90
41262;DHT22;29629;52.532;13.352;2023-06-26T07:53:11;27.20;99.90
41262;DHT22;29629;52.532;13.352;2023-06-26T07:55:38;27.40;99.90
41262;DHT22;29629;52.532;13.352;2023-06-26T07:58:06;27.60;99.90
41262;DHT22;29629;52.532;13.352;2023-06-26T08:00:35;27.60;99.90
41262;DHT22;29629;52.532;13.352;2023-06-26T08:03:02;27.80;99.90
41262;DHT22;29629;52.532;13.352;2023-06-26T08:05:29;27.90;99.90
41262;DHT22;29629;52.532;13.352;2023-06-26T08:07:56;27.50;99.90
41262;DHT22;29629;52.532;13.352;2023-06-26T08:10:23;27.60;99.90
41262;DHT22;29629;52.532;13.352;2023-06-26T08:12:50;27.10;99.90
41262;DHT22;29629;52.532;13.352;2023-06-26T08:15:18;27.10;99.90
41262;DHT22;29629;52.532;13.352;2023-06-26T08:17:46;27.60;99.90
41262;DHT22;29629;52.532;13.352;2023-06-26T08:20:13;28.00;99.90
41262;DHT22;29629;52.532;13.352;2023-06-26T08:22:40;28.30;99.90
41262;DHT22;29629;52.532;13.352;2023-06-26T08:25:08;28.50;99.90
41262;DHT22;29629;52.532;13.352;2023-06-26T08:27:35;28.60;99.90
41262;DHT22;29629;52.532;13.352;2023-06-26T08:30:02;28.80;99.90
41262;DHT22;29629;52.532;13.352;2023-06-26T08:32:30;28.70;99.90
41262;DHT22;29629;52.532;13.352;2023-06-26T08:34:58;28.60;99.90
41262;DHT22;29629;52.532;13.352;2023-06-26T08:37:25;28.20;99.90
41262;DHT22;29629;52.532;13.352;2023-06-26T08:39:52;28.40;99.90
41262;DHT22;29629;52.532;13.352;2023-06-26T08:42:19;28.80;99.90
41262;DHT22;29629;52.532;13.352;2023-06-26T08:44:46;29.20;99.90
41262;DHT22;29629;52.532;13.352;2023-06-26T08:47:14;29.70;99.90
41262;DHT22;29629;52.532;13.352;2023-06-26T08:49:46;29.60;99.90
41262;DHT22;29629;52.532;13.352;2023-06-26T08:52:19;29.30;99.90
41262;DHT22;29629;52.532;13.352;2023-06-26T08:54:58;29.70;99.90
41262;DHT22;29629;52.532;13.352;2023-06-26T08:57:26;29.60;99.90
41262;DHT22;29629;52.532;13.352;2023-06-26T08:59:53;29.50;99.90
41262;DHT22;29629;52.532;13.352;2023-06-26T09:02:21;30.00;99.90
41262;DHT22;29629;52.532;13.352;2023-06-26T09:04:48;30.60;99.90
41262;DHT22;29629;52.532;13.352;2023-06-26T09:07:17;30.30;99.90
41262;DHT22;29629;52.532;13.352;2023-06-26T09:09:44;30.30;99.90
41262;DHT22;29629;52.532;13.352;2023-06-26T09:12:11;30.00;99.90
41262;DHT22;29629;52.532;13.352;2023-06-26T09:14:38;30.90;99.90
41262;DHT22;29629;52.532;13.352;2023-06-26T09:17:05;30.20;99.90
41262;DHT22;29629;52.532;13.352;2023-06-26T09:19:32;30.10;99.90
41262;DHT22;29629;52.532;13.352;2023-06-26T09:22:02;29.90;99.90
41262;DHT22;29629;52.532;13.352;2023-06-26T09:24:30;29.80;99.90
41262;DHT22;29629;52.532;13.352;2023-06-26T09:26:58;31.50;99.90
41262;DHT22;29629;52.532;13.352;2023-06-26T09:29:26;31.90;99.90
41262;DHT22;29629;52.532;13.352;2023-06-26T09:31:56;32.20;99.90
41262;DHT22;29629;52.532;13.352;2023-06-26T09:34:30;34.30;99.90
41262;DHT22;29629;52.532;13.352;2023-06-26T09:36:59;36.40;99.90
41262;DHT22;29629;52.532;13.352;2023-06-26T09:39:32;36.70;97.50
41262;DHT22;29629;52.532;13.352;2023-06-26T09:41:59;36.80;96.80
41262;DHT22;29629;52.532;13.352;2023-06-26T09:44:30;36.60;95.30
41262;DHT22;29629;52.532;13.352;2023-06-26T09:46:57;37.30;95.10
41262;DHT22;29629;52.532;13.352;2023-06-26T09:49:24;37.80;92.40
41262;DHT22;29629;52.532;13.352;2023-06-26T09:51:53;38.00;92.00
41262;DHT22;29629;52.532;13.352;2023-06-26T09:54:22;38.30;92.20
41262;DHT22;29629;52.532;13.352;2023-06-26T09:56:52;38.30;90.80
41262;DHT22;29629;52.532;13.352;2023-06-26T09:59:19;38.10;89.30
41262;DHT22;29629;52.532;13.352;2023-06-26T10:01:46;38.60;91.30
41262;DHT22;29629;52.532;13.352;2023-06-26T10:04:13;38.90;88.80
41262;DHT22;29629;52.532;13.352;2023-06-26T10:06:45;38.50;89.10
41262;DHT22;29629;52.532;13.352;2023-06-26T10:09:15;37.80;89.80
41262;DHT22;29629;52.532;13.352;2023-06-26T10:11:47;38.20;88.70
41262;DHT22;29629;52.532;13.352;2023-06-26T10:14:17;38.50;89.80
41262;DHT22;29629;52.532;13.352;2023-06-26T10:16:45;38.80;89.40
41262;DHT22;29629;52.532;13.352;2023-06-26T10:19:14;37.80;89.40
41262;DHT22;29629;52.532;13.352;2023-06-26T10:21:45;38.30;88.40
41262;DHT22;29629;52.532;13.352;2023-06-26T10:24:13;36.80;89.10
41262;DHT22;29629;52.532;13.352;2023-06-26T10:26:43;35.90;91.20
41262;DHT22;29629;52.532;13.352;2023-06-26T10:29:12;37.10;90.40
41262;DHT22;29629;52.532;13.352;2023-06-26T10:31:44;35.70;90.90
41262;DHT22;29629;52.532;13.352;2023-06-26T10:34:12;37.00;90.30
41262;DHT22;29629;52.532;13.352;2023-06-26T10:36:39;37.10;90.90
41262;DHT22;29629;52.532;13.352;2023-06-26T10:39:07;35.60;90.80
41262;DHT22;29629;52.532;13.352;2023-06-26T10:41:38;37.10;92.00
41262;DHT22;29629;52.532;13.352;2023-06-26T10:44:07;37.40;90.00
41262;DHT22;29629;52.532;13.352;2023-06-26T10:46:48;38.10;88.90
41262;DHT22;29629;52.532;13.352;2023-06-26T10:49:17;36.90;89.00
41262;DHT22;29629;52.532;13.352;2023-06-26T10:51:46;38.90;89.00
41262;DHT22;29629;52.532;13.352;2023-06-26T10:54:15;37.80;86.90
41262;DHT22;29629;52.532;13.352;2023-06-26T10:56:44;38.40;88.80
41262;DHT22;29629;52.532;13.352;2023-06-26T10:59:14;38.40;86.70
41262;DHT22;29629;52.532;13.352;2023-06-26T11:01:43;37.60;87.20
41262;DHT22;29629;52.532;13.352;2023-06-26T11:04:12;37.70;89.00
41262;DHT22;29629;52.532;13.352;2023-06-26T11:06:40;37.80;87.50
41262;DHT22;29629;52.532;13.352;2023-06-26T11:09:09;37.60;87.10
41262;DHT22;29629;52.532;13.352;2023-06-26T11:11:57;36.40;87.70
41262;DHT22;29629;52.532;13.352;2023-06-26T11:14:27;35.30;90.60
41262;DHT22;29629;52.532;13.352;2023-06-26T11:16:57;35.40;90.30
41262;DHT22;29629;52.532;13.352;2023-06-26T11:19:26;37.40;88.50
41262;DHT22;29629;52.532;13.352;2023-06-26T11:21:58;36.00;89.20
41262;DHT22;29629;52.532;13.352;2023-06-26T11:24:26;36.40;90.30
41262;DHT22;29629;52.532;13.352;2023-06-26T11:26:55;37.80;90.20
41262;DHT22;29629;52.532;13.352;2023-06-26T11:29:26;38.60;86.40
41262;DHT22;29629;52.532;13.352;2023-06-26T11:32:00;38.80;86.10
41262;DHT22;29629;52.532;13.352;2023-06-26T11:34:31;38.70;84.90
41262;DHT22;29629;52.532;13.352;2023-06-26T11:36:58;37.10;85.00
41262;DHT22;29629;52.532;13.352;2023-06-26T11:39:29;38.10;88.60
41262;DHT22;29629;52.532;13.352;2023-06-26T11:41:56;38.10;85.30
41262;DHT22;29629;52.532;13.352;2023-06-26T11:44:23;37.20;86.00
41262;DHT22;29629;52.532;13.352;2023-06-26T11:46:53;37.80;85.90
41262;DHT22;29629;52.532;13.352;2023-06-26T11:49:23;39.20;86.20
41262;DHT22;29629;52.532;13.352;2023-06-26T11:51:52;38.10;83.20
41262;DHT22;29629;52.532;13.352;2023-06-26T11:54:24;37.70;85.60
41262;DHT22;29629;52.532;13.352;2023-06-26T11:56:55;36.20;86.50
41262;DHT22;29629;52.532;13.352;2023-06-26T11:59:33;37.80;84.80
41262;DHT22;29629;52.532;13.352;2023-06-26T12:02:04;38.50;85.10
41262;DHT22;29629;52.532;13.352;2023-06-26T12:04:34;38.90;85.20
41262;DHT22;29629;52.532;13.352;2023-06-26T12:07:02;39.00;82.70
41262;DHT22;29629;52.532;13.352;2023-06-26T12:09:31;38.00;81.20
41262;DHT22;29629;52.532;13.352;2023-06-26T12:11:59;36.80;85.40
41262;DHT22;29629;52.532;13.352;2023-06-26T12:14:27;38.40;85.10
41262;DHT22;29629;52.532;13.352;2023-06-26T12:16:55;37.30;82.90
41262;DHT22;29629;52.532;13.352;2023-06-26T12:19:25;34.20;88.10
41262;DHT22;29629;52.532;13.352;2023-06-26T12:21:54;34.60;87.50
41262;DHT22;29629;52.532;13.352;2023-06-26T12:24:23;36.20;88.70
41262;DHT22;29629;52.532;13.352;2023-06-26T12:26:52;35.90;88.90
41262;DHT22;29629;52.532;13.352;2023-06-26T12:29:22;37.40;86.00
41262;DHT22;29629;52.532;13.352;2023-06-26T12:31:55;38.10;83.70
41262;DHT22;29629;52.532;13.352;2023-06-26T12:34:30;35.10;86.10
41262;DHT22;29629;52.532;13.352;2023-06-26T12:37:02;35.50;86.90
41262;DHT22;29629;52.532;13.352;2023-06-26T12:39:29;34.90;87.50
41262;DHT22;29629;52.532;13.352;2023-06-26T12:41:59;35.50;86.70
41262;DHT22;29629;52.532;13.352;2023-06-26T12:44:28;36.30;88.50
41262;DHT22;29629;52.532;13.352;2023-06-26T12:46:57;35.90;85.70
41262;DHT22;29629;52.532;13.352;2023-06-26T12:49:31;35.00;87.70
41262;DHT22;29629;52.532;13.352;2023-06-26T12:52:01;33.90;89.30
41262;DHT22;29629;52.532;13.352;2023-06-26T12:54:28;33.20;90.90
41262;DHT22;29629;52.532;13.352;2023-06-26T12:56:55;34.20;90.20
41262;DHT22;29629;52.532;13.352;2023-06-26T12:59:22;33.10;90.90
41262;DHT22;29629;52.532;13.352;2023-06-26T13:01:49;33.30;91.00
41262;DHT22;29629;52.532;13.352;2023-06-26T13:04:16;33.20;91.60
41262;DHT22;29629;52.532;13.352;2023-06-26T13:06:43;32.60;91.40
41262;DHT22;29629;52.532;13.352;2023-06-26T13:09:12;32.80;91.70
41262;DHT22;29629;52.532;13.352;2023-06-26T13:11:39;31.60;92.70
41262;DHT22;29629;52.532;13.352;2023-06-26T13:14:06;31.30;92.80
41262;DHT22;29629;52.532;13.352;2023-06-26T13:16:33;31.30;93.30
41262;DHT22;29629;52.532;13.352;2023-06-26T13:19:00;31.20;93.40
41262;DHT22;29629;52.532;13.352;2023-06-26T13:21:27;31.20;93.20
41262;DHT22;29629;52.532;13.352;2023-06-26T13:23:55;31.00;93.60
41262;DHT22;29629;52.532;13.352;2023-06-26T13:26:23;30.70;93.50
41262;DHT22;29629;52.532;13.352;2023-06-26T13:28:51;30.70;93.90
41262;DHT22;29629;52.532;13.352;2023-06-26T13:31:18;30.70;93.80
41262;DHT22;29629;52.532;13.352;2023-06-26T13:33:46;30.60;94.10
41262;DHT22;29629;52.532;13.352;2023-06-26T13:36:15;30.50;94.30
41262;DHT22;29629;52.532;13.352;2023-06-26T13:38:42;30.50;94.30
41262;DHT22;29629;52.532;13.352;2023-06-26T13:41:09;30.50;94.10
41262;DHT22;29629;52.532;13.352;2023-06-26T13:43:37;30.50;94.50
41262;DHT22;29629;52.532;13.352;2023-06-26T13:46:04;30.40;94.60
41262;DHT22;29629;52.532;13.352;2023-06-26T13:48:31;30.40;94.60
41262;DHT22;29629;52.532;13.352;2023-06-26T13:50:58;30.20;94.90
41262;DHT22;29629;52.532;13.352;2023-06-26T13:53:25;30.10;95.00
41262;DHT22;29629;52.532;13.352;2023-06-26T13:55:52;30.10;95.50
41262;DHT22;29629;52.532;13.352;2023-06-26T13:58:19;30.20;95.50
41262;DHT22;29629;52.532;13.352;2023-06-26T14:00:51;30.20;95.50
41262;DHT22;29629;52.532;13.352;2023-06-26T14:03:18;30.20;95.40
41262;DHT22;29629;52.532;13.352;2023-06-26T14:05:45;30.00;95.60
41262;DHT22;29629;52.532;13.352;2023-06-26T14:08:13;29.90;96.20
41262;DHT22;29629;52.532;13.352;2023-06-26T14:10:40;29.80;96.10
41262;DHT22;29629;52.532;13.352;2023-06-26T14:13:08;29.80;96.20
41262;DHT22;29629;52.532;13.352;2023-06-26T14:15:37;29.50;97.20
41262;DHT22;29629;52.532;13.352;2023-06-26T14:18:07;28.90;99.30
41262;DHT22;29629;52.532;13.352;2023-06-26T14:20:34;28.40;99.90
41262;DHT22;29629;52.532;13.352;2023-06-26T14:23:03;27.20;99.90
41262;DHT22;29629;52.532;13.352;2023-06-26T14:25:30;24.50;99.90
41262;DHT22;29629;52.532;13.352;2023-06-26T14:27:58;23.30;99.90
41262;DHT22;29629;52.532;13.352;2023-06-26T14:30:25;22.40;99.90
41262;DHT22;29629;52.532;13.352;2023-06-26T14:32:52;21.40;99.90
41262;DHT22;29629;52.532;13.352;2023-06-26T14:35:20;21.30;99.90
41262;DHT22;29629;52.532;13.352;2023-06-26T14:37:48;20.60;99.90
41262;DHT22;29629;52.532;13.352;2023-06-26T14:40:15;20.60;99.90
41262;DHT22;29629;52.532;13.352;2023-06-26T14:42:42;20.70;99.90
41262;DHT22;29629;52.532;13.352;2023-06-26T14:45:11;20.90;99.90
41262;DHT22;29629;52.532;13.352;2023-06-26T14:47:39;20.90;99.90
41262;DHT22;29629;52.532;13.352;2023-06-26T14:50:07;20.80;99.90
41262;DHT22;29629;52.532;13.352;2023-06-26T14:52:35;21.10;99.90
41262;DHT22;29629;52.532;13.352;2023-06-26T14:55:03;21.10;99.90
41262;DHT22;29629;52.532;13.352;2023-06-26T14:57:30;21.10;99.90
41262;DHT22;29629;52.532;13.352;2023-06-26T14:59:56;21.10;99.90
41262;DHT22;29629;52.532;13.352;2023-06-26T15:02:23;21.20;99.90
41262;DHT22;29629;52.532;13.352;2023-06-26T15:04:50;21.20;99.90
41262;DHT22;29629;52.532;13.352;2023-06-26T15:07:17;20.80;99.90
41262;DHT22;29629;52.532;13.352;2023-06-26T15:09:45;20.70;99.90
41262;DHT22;29629;52.532;13.352;2023-06-26T15:12:12;20.70;99.90
41262;DHT22;29629;52.532;13.352;2023-06-26T15:14:39;20.80;99.90
41262;DHT22;29629;52.532;13.352;2023-06-26T15:17:06;20.70;99.90
41262;DHT22;29629;52.532;13.352;2023-06-26T15:19:34;20.50;99.90